NSZ1YP EKCH-LEBL
Flight info
| Callsign | NSZ1YP |
|---|---|
| Flight time | N/A |
| Altitude | 36000 |
| Route | NEXEN T503 GIMRU DCT MICOS DCT WRB DCT XAROL DCT BOMBI DCT GIGET DCT ABUKA DCT KRH DCT NATOR/N0440F350 DCT LUTIX DCT BENOT DCT NEMOS DCT GEVEA DCT INCUS DCT BALSI DCT RETNO DCT TUPOX DCT MTG DCT DIVKO DCT NILDU N975 BISBA |
| Aircraft | B738/M-SADE3GHIJ1LRWXY/LB1 |
Departure
| Time | 2026-04-22 19:06 |
|---|---|
| Airport | Copenhagen Kastrup Airport (EKCH) |
Arrival
| Time | N/A |
|---|---|
| Airport | Josep Tarradellas Barcelona-El Prat Airport (LEBL) |
| Time | Latitude | Longitude | Altitude | Speed | Heading |
|---|---|---|---|---|---|
| 2026-04-22 18:50 | 55.62739 | 12.64040 | 16 ft | 1 kts | 33° |
| 2026-04-22 18:56 | 55.62738 | 12.64039 | 16 ft | 2 kts | 33° |
| 2026-04-22 18:56 | 55.62717 | 12.64014 | 17 ft | 4 kts | 32° |
| 2026-04-22 18:56 | 55.62693 | 12.63993 | 17 ft | 4 kts | 9° |
| 2026-04-22 18:57 | 55.62673 | 12.63999 | 18 ft | 4 kts | 322° |
| 2026-04-22 18:57 | 55.62662 | 12.64027 | 20 ft | 1 kts | 303° |
| 2026-04-22 18:59 | 55.62663 | 12.64024 | 19 ft | 2 kts | 303° |
| 2026-04-22 18:59 | 55.62687 | 12.63955 | 18 ft | 11 kts | 302° |
| 2026-04-22 19:00 | 55.62645 | 12.63815 | 16 ft | 19 kts | 208° |
| 2026-04-22 19:00 | 55.62504 | 12.63787 | 16 ft | 21 kts | 161° |
| 2026-04-22 19:00 | 55.62398 | 12.63958 | 14 ft | 21 kts | 123° |
| 2026-04-22 19:00 | 55.62337 | 12.64126 | 14 ft | 12 kts | 123° |
| 2026-04-22 19:01 | 55.62292 | 12.64247 | 15 ft | 12 kts | 122° |
| 2026-04-22 19:01 | 55.62246 | 12.64362 | 15 ft | 12 kts | 135° |
| 2026-04-22 19:01 | 55.62159 | 12.64422 | 16 ft | 16 kts | 169° |
| 2026-04-22 19:01 | 55.62039 | 12.64461 | 18 ft | 20 kts | 169° |
| 2026-04-22 19:02 | 55.61884 | 12.64514 | 17 ft | 25 kts | 169° |
| 2026-04-22 19:02 | 55.61725 | 12.64564 | 17 ft | 19 kts | 169° |
| 2026-04-22 19:02 | 55.61605 | 12.64487 | 18 ft | 20 kts | 212° |
| 2026-04-22 19:02 | 55.61472 | 12.64336 | 17 ft | 24 kts | 213° |
| 2026-04-22 19:03 | 55.61338 | 12.64182 | 17 ft | 23 kts | 212° |
| 2026-04-22 19:03 | 55.61202 | 12.64024 | 18 ft | 23 kts | 213° |
| 2026-04-22 19:03 | 55.61069 | 12.63872 | 17 ft | 22 kts | 213° |
| 2026-04-22 19:03 | 55.60940 | 12.63722 | 16 ft | 22 kts | 213° |
| 2026-04-22 19:04 | 55.60832 | 12.63600 | 18 ft | 14 kts | 208° |
| 2026-04-22 19:04 | 55.60753 | 12.63654 | 16 ft | 13 kts | 131° |
| 2026-04-22 19:04 | 55.60696 | 12.63775 | 17 ft | 13 kts | 127° |
| 2026-04-22 19:04 | 55.60685 | 12.63882 | 18 ft | 7 kts | 54° |
| 2026-04-22 19:05 | 55.60692 | 12.63894 | 20 ft | 0 kts | 42° |
| 2026-04-22 19:05 | 55.60709 | 12.63921 | 18 ft | 14 kts | 41° |
| 2026-04-22 19:05 | 55.60954 | 12.64300 | 18 ft | 80 kts | 41° |
| 2026-04-22 19:06 | 55.61523 | 12.65183 | 15 ft | 136 kts | 42° |
| 2026-04-22 19:06 | 55.62336 | 12.66452 | 158 ft | 167 kts | 38° |
| 2026-04-22 19:06 | 55.63191 | 12.67773 | 838 ft | 166 kts | 37° |
| 2026-04-22 19:07 | 55.64934 | 12.70434 | 1946 ft | 177 kts | 32° |
| 2026-04-22 19:07 | 55.65925 | 12.71918 | 2186 ft | 197 kts | 32° |
| 2026-04-22 19:07 | 55.67020 | 12.73553 | 2327 ft | 216 kts | 33° |
| 2026-04-22 19:07 | 55.68217 | 12.75341 | 2479 ft | 234 kts | 33° |
| 2026-04-22 19:08 | 55.69511 | 12.77273 | 2738 ft | 250 kts | 34° |
| 2026-04-22 19:08 | 55.70635 | 12.79709 | 3339 ft | 265 kts | 62° |
| 2026-04-22 19:08 | 55.70924 | 12.82971 | 4061 ft | 278 kts | 93° |
| 2026-04-22 19:08 | 55.70190 | 12.86175 | 4709 ft | 289 kts | 128° |
| 2026-04-22 19:09 | 55.68564 | 12.88261 | 5339 ft | 293 kts | 159° |
| 2026-04-22 19:09 | 55.66619 | 12.89383 | 5969 ft | 296 kts | 163° |
| 2026-04-22 19:09 | 55.65310 | 12.90120 | 6377 ft | 300 kts | 162° |
| 2026-04-22 19:09 | 55.62638 | 12.91639 | 7209 ft | 304 kts | 169° |
| 2026-04-22 19:10 | 55.60548 | 12.91623 | 7830 ft | 301 kts | 198° |
| 2026-04-22 19:10 | 55.58678 | 12.90073 | 8507 ft | 296 kts | 222° |
| 2026-04-22 19:10 | 55.57194 | 12.87576 | 9156 ft | 296 kts | 231° |
| 2026-04-22 19:10 | 55.55764 | 12.84911 | 9778 ft | 301 kts | 231° |
| 2026-04-22 19:11 | 55.54311 | 12.82215 | 10441 ft | 305 kts | 230° |
| 2026-04-22 19:11 | 55.52801 | 12.79440 | 10672 ft | 326 kts | 230° |
| 2026-04-22 19:11 | 55.51186 | 12.76464 | 10884 ft | 344 kts | 231° |
| 2026-04-22 19:11 | 55.49593 | 12.73244 | 11368 ft | 352 kts | 233° |
| 2026-04-22 19:12 | 55.48018 | 12.69915 | 12027 ft | 354 kts | 233° |
| 2026-04-22 19:12 | 55.46442 | 12.66556 | 12735 ft | 357 kts | 233° |
| 2026-04-22 19:12 | 55.44852 | 12.63177 | 13442 ft | 360 kts | 233° |
| 2026-04-22 19:12 | 55.43241 | 12.59772 | 14132 ft | 364 kts | 232° |
| 2026-04-22 19:13 | 55.41610 | 12.56344 | 14761 ft | 367 kts | 232° |
| 2026-04-22 19:13 | 55.39957 | 12.52885 | 15404 ft | 371 kts | 232° |
| 2026-04-22 19:13 | 55.38288 | 12.49403 | 16047 ft | 375 kts | 231° |
| 2026-04-22 19:13 | 55.36596 | 12.45882 | 16691 ft | 379 kts | 231° |
| 2026-04-22 19:14 | 55.34886 | 12.42328 | 17324 ft | 383 kts | 231° |
| 2026-04-22 19:14 | 55.33156 | 12.38741 | 17947 ft | 387 kts | 231° |
| 2026-04-22 19:14 | 55.31407 | 12.35118 | 18566 ft | 391 kts | 230° |
| 2026-04-22 19:14 | 55.29636 | 12.31455 | 19090 ft | 395 kts | 230° |
| 2026-04-22 19:15 | 55.28455 | 12.29014 | 19427 ft | 398 kts | 230° |
| 2026-04-22 19:15 | 55.26041 | 12.24034 | 20114 ft | 403 kts | 230° |
| 2026-04-22 19:15 | 55.24214 | 12.20268 | 20610 ft | 408 kts | 230° |
| 2026-04-22 19:15 | 55.22365 | 12.16468 | 21108 ft | 412 kts | 229° |
| 2026-04-22 19:16 | 55.20491 | 12.12652 | 21611 ft | 415 kts | 227° |
| 2026-04-22 19:16 | 55.18326 | 12.09279 | 22092 ft | 418 kts | 216° |
| 2026-04-22 19:16 | 55.15970 | 12.06278 | 22654 ft | 420 kts | 213° |
| 2026-04-22 19:16 | 55.13572 | 12.03345 | 23171 ft | 423 kts | 213° |
| 2026-04-22 19:17 | 55.11149 | 12.00385 | 23624 ft | 427 kts | 213° |
| 2026-04-22 19:17 | 55.08713 | 11.97371 | 24039 ft | 431 kts | 213° |
| 2026-04-22 19:17 | 55.06301 | 11.94348 | 24440 ft | 434 kts | 213° |
| 2026-04-22 19:17 | 55.03852 | 11.91252 | 24843 ft | 437 kts | 213° |
| 2026-04-22 19:18 | 55.01389 | 11.88126 | 25229 ft | 439 kts | 213° |
| 2026-04-22 19:18 | 54.98911 | 11.84979 | 25618 ft | 442 kts | 213° |
| 2026-04-22 19:18 | 54.96415 | 11.81812 | 25991 ft | 445 kts | 213° |
| 2026-04-22 19:18 | 54.93903 | 11.78631 | 26378 ft | 448 kts | 213° |
| 2026-04-22 19:19 | 54.91379 | 11.75440 | 26803 ft | 449 kts | 212° |
| 2026-04-22 19:19 | 54.88846 | 11.72245 | 27169 ft | 452 kts | 212° |
| 2026-04-22 19:19 | 54.86293 | 11.69028 | 27495 ft | 455 kts | 212° |
| 2026-04-22 19:19 | 54.83721 | 11.65794 | 27821 ft | 458 kts | 212° |
| 2026-04-22 19:20 | 54.81135 | 11.62550 | 28161 ft | 461 kts | 212° |
| 2026-04-22 19:20 | 54.78527 | 11.59290 | 28500 ft | 463 kts | 212° |
| 2026-04-22 19:20 | 54.75907 | 11.56030 | 28818 ft | 466 kts | 211° |
| 2026-04-22 19:20 | 54.73265 | 11.52750 | 29144 ft | 468 kts | 211° |
| 2026-04-22 19:21 | 54.70611 | 11.49457 | 29487 ft | 471 kts | 211° |
| 2026-04-22 19:21 | 54.67956 | 11.46167 | 29839 ft | 472 kts | 211° |
| 2026-04-22 19:21 | 54.65280 | 11.42854 | 30134 ft | 474 kts | 211° |
| 2026-04-22 19:21 | 54.62590 | 11.39529 | 30396 ft | 477 kts | 211° |
| 2026-04-22 19:22 | 54.59887 | 11.36191 | 30629 ft | 479 kts | 211° |
| 2026-04-22 19:22 | 54.57169 | 11.32842 | 30893 ft | 480 kts | 210° |
| 2026-04-22 19:22 | 54.54454 | 11.29505 | 31241 ft | 479 kts | 210° |
| 2026-04-22 19:22 | 54.51743 | 11.26186 | 31604 ft | 478 kts | 210° |
| 2026-04-22 19:23 | 54.49034 | 11.22881 | 31927 ft | 477 kts | 210° |
| 2026-04-22 19:23 | 54.46326 | 11.19580 | 32250 ft | 477 kts | 209° |
| 2026-04-22 19:23 | 54.43617 | 11.16284 | 32571 ft | 477 kts | 209° |
| 2026-04-22 19:23 | 54.40911 | 11.12994 | 32896 ft | 477 kts | 209° |
| 2026-04-22 19:24 | 54.38203 | 11.09705 | 33193 ft | 476 kts | 208° |
| 2026-04-22 19:24 | 54.35497 | 11.06424 | 33483 ft | 476 kts | 208° |
| 2026-04-22 19:24 | 54.32790 | 11.03148 | 33788 ft | 476 kts | 208° |
| 2026-04-22 19:24 | 54.30035 | 11.00061 | 34076 ft | 470 kts | 201° |
| 2026-04-22 19:25 | 54.27106 | 10.97711 | 34342 ft | 463 kts | 195° |
| 2026-04-22 19:25 | 54.24127 | 10.95592 | 34622 ft | 461 kts | 194° |
| 2026-04-22 19:25 | 54.21174 | 10.93527 | 34927 ft | 459 kts | 194° |
| 2026-04-22 19:25 | 54.18223 | 10.91463 | 35191 ft | 458 kts | 194° |
| 2026-04-22 19:26 | 54.15309 | 10.89412 | 35396 ft | 459 kts | 195° |
| 2026-04-22 19:26 | 54.12322 | 10.87294 | 35579 ft | 460 kts | 195° |
| 2026-04-22 19:26 | 54.09366 | 10.85187 | 35789 ft | 460 kts | 195° |
| 2026-04-22 19:26 | 54.06416 | 10.83076 | 36034 ft | 459 kts | 196° |
| 2026-04-22 19:27 | 54.03479 | 10.80972 | 36248 ft | 459 kts | 196° |
| 2026-04-22 19:27 | 53.97553 | 10.76738 | 36316 ft | 464 kts | 196° |
| 2026-04-22 19:28 | 53.91613 | 10.72503 | 36291 ft | 461 kts | 196° |
| 2026-04-22 19:28 | 53.85779 | 10.68352 | 36292 ft | 456 kts | 196° |
| 2026-04-22 19:29 | 53.79929 | 10.64210 | 36291 ft | 455 kts | 196° |
| 2026-04-22 19:29 | 53.74088 | 10.60091 | 36299 ft | 455 kts | 196° |
| 2026-04-22 19:30 | 53.70182 | 10.57342 | 36310 ft | 455 kts | 196° |
| 2026-04-22 19:30 | 53.63351 | 10.52547 | 36318 ft | 455 kts | 196° |
| 2026-04-22 19:31 | 53.57500 | 10.48454 | 36322 ft | 456 kts | 196° |
| 2026-04-22 19:31 | 53.51639 | 10.44365 | 36342 ft | 457 kts | 196° |
| 2026-04-22 19:32 | 53.45758 | 10.40275 | 36332 ft | 458 kts | 196° |
| 2026-04-22 19:32 | 53.39865 | 10.36187 | 36337 ft | 459 kts | 196° |
| 2026-04-22 19:33 | 53.34004 | 10.32134 | 36330 ft | 459 kts | 196° |
| 2026-04-22 19:33 | 53.28098 | 10.28063 | 36359 ft | 460 kts | 196° |
| 2026-04-22 19:34 | 53.22143 | 10.23969 | 36342 ft | 459 kts | 196° |
| 2026-04-22 19:34 | 53.16270 | 10.19944 | 36335 ft | 459 kts | 196° |
| 2026-04-22 19:35 | 53.10373 | 10.15915 | 36327 ft | 458 kts | 196° |
| 2026-04-22 19:35 | 53.04484 | 10.11903 | 36325 ft | 457 kts | 196° |
| 2026-04-22 19:36 | 52.98606 | 10.07911 | 36320 ft | 456 kts | 196° |
| 2026-04-22 19:36 | 52.92737 | 10.03937 | 36322 ft | 455 kts | 196° |
| 2026-04-22 19:37 | 52.86873 | 9.99977 | 36322 ft | 455 kts | 196° |
| 2026-04-22 19:37 | 52.81016 | 9.96035 | 36344 ft | 454 kts | 196° |
| 2026-04-22 19:38 | 52.75162 | 9.92106 | 36336 ft | 454 kts | 196° |
| 2026-04-22 19:38 | 52.69311 | 9.88190 | 36347 ft | 454 kts | 196° |
| 2026-04-22 19:39 | 52.63457 | 9.84284 | 36349 ft | 454 kts | 196° |
| 2026-04-22 19:39 | 52.57599 | 9.80386 | 36357 ft | 454 kts | 197° |
| 2026-04-22 19:40 | 52.51739 | 9.76498 | 36349 ft | 455 kts | 197° |
| 2026-04-22 19:40 | 52.45870 | 9.72615 | 36349 ft | 455 kts | 197° |
| 2026-04-22 19:41 | 52.39995 | 9.68740 | 36346 ft | 455 kts | 196° |
| 2026-04-22 19:41 | 52.34117 | 9.64873 | 36357 ft | 456 kts | 197° |
| 2026-04-22 19:42 | 52.28216 | 9.61003 | 36356 ft | 457 kts | 197° |
| 2026-04-22 19:42 | 52.22310 | 9.57140 | 36354 ft | 458 kts | 197° |
| 2026-04-22 19:43 | 52.13435 | 9.51356 | 36369 ft | 458 kts | 198° |
| 2026-04-22 19:43 | 52.07509 | 9.47508 | 36358 ft | 459 kts | 198° |
| 2026-04-22 19:44 | 52.01576 | 9.43666 | 36355 ft | 459 kts | 198° |
| 2026-04-22 19:44 | 51.95637 | 9.39832 | 36356 ft | 460 kts | 198° |
| 2026-04-22 19:45 | 51.89689 | 9.36003 | 36358 ft | 460 kts | 198° |
| 2026-04-22 19:45 | 51.83741 | 9.32184 | 36351 ft | 460 kts | 198° |
| 2026-04-22 19:46 | 51.77824 | 9.28396 | 36350 ft | 461 kts | 198° |
| 2026-04-22 19:46 | 51.71863 | 9.24590 | 36350 ft | 461 kts | 198° |
| 2026-04-22 19:47 | 51.65899 | 9.20794 | 36360 ft | 461 kts | 199° |
| 2026-04-22 19:47 | 51.59925 | 9.17001 | 36350 ft | 461 kts | 199° |
| 2026-04-22 19:48 | 51.53953 | 9.13219 | 36346 ft | 461 kts | 199° |
| 2026-04-22 19:48 | 51.47893 | 9.09954 | 36345 ft | 457 kts | 189° |
| 2026-04-22 19:49 | 51.41650 | 9.07974 | 36345 ft | 457 kts | 188° |
| 2026-04-22 19:49 | 51.35410 | 9.05941 | 36339 ft | 458 kts | 189° |
| 2026-04-22 19:50 | 51.29153 | 9.04003 | 36343 ft | 457 kts | 185° |
| 2026-04-22 19:50 | 51.22850 | 9.02732 | 36349 ft | 457 kts | 184° |
| 2026-04-22 19:51 | 51.16525 | 9.01558 | 36351 ft | 458 kts | 184° |
| 2026-04-22 19:51 | 51.10190 | 9.00339 | 36344 ft | 459 kts | 184° |